Time;durP1;ratioP1;P1;durP2;ratioP2;P2;SDS_P1;SDS_P2;PMS_P1;PMS_P2;Temp;Humidity;BMP_temperature;BMP_pressure;BME280_temperature;BME280_humidity;BME280_pressure;Samples;Min_cycle;Max_cycle;Signal;HPM_P1;HPM_P2
2022/04/02 00:01:26;;;;;;;0.75;0.52;;;;;;;11.27;52.17;92221.41;5104887;28;20269;-73
2022/04/02 00:03:52;;;;;;;5.10;0.75;;;;;;;11.27;52.17;92236.66;5105865;28;20225;-73
2022/04/02 00:06:17;;;;;;;3.42;0.68;;;;;;;11.21;52.59;92236.19;5105775;28;20250;-72
2022/04/02 00:08:43;;;;;;;6.68;0.75;;;;;;;11.15;51.02;92250.94;5105891;28;20019;-72
2022/04/02 00:11:18;;;;;;;2.08;0.40;;;;;;;11.03;50.05;92244.66;5105585;28;20043;-72
2022/04/02 00:13:43;;;;;;;2.55;0.70;;;;;;;11.06;51.64;92218.41;5105858;28;20095;-72
2022/04/02 00:16:09;;;;;;;1.98;0.50;;;;;;;10.98;50.51;92250.28;5105718;28;20019;-71
2022/04/02 00:18:34;;;;;;;2.92;0.30;;;;;;;10.92;50.25;92240.25;5105697;28;20030;-72
2022/04/02 00:21:00;;;;;;;1.20;0.32;;;;;;;10.94;49.84;92232.69;5105679;28;20035;-72
2022/04/02 00:23:40;;;;;;;2.00;0.88;;;;;;;10.92;49.72;92246.34;5105578;28;20016;-71
2022/04/02 00:26:11;;;;;;;2.03;0.43;;;;;;;10.84;48.29;92253.44;5105598;28;20042;-71
2022/04/02 00:28:39;;;;;;;5.93;0.60;;;;;;;10.83;49.01;92253.81;5105486;28;20036;-72
2022/04/02 00:31:07;;;;;;;1.75;0.45;;;;;;;10.71;48.88;92253.97;5105439;28;20058;-72
2022/04/02 00:33:34;;;;;;;0.57;0.30;;;;;;;10.65;49.50;92240.16;5105505;28;20032;-71
2022/04/02 00:35:59;;;;;;;0.55;0.30;;;;;;;10.70;48.30;92249.75;5105324;28;20049;-72
2022/04/02 00:38:25;;;;;;;0.68;0.32;;;;;;;10.59;49.34;92229.03;5105363;28;20103;-72
2022/04/02 00:40:51;;;;;;;1.40;0.25;;;;;;;10.59;49.25;92262.88;5105293;28;20036;-72
2022/04/02 00:43:22;;;;;;;1.90;0.40;;;;;;;10.64;49.52;92258.06;5105206;28;20087;-72
2022/04/02 00:45:48;;;;;;;1.40;0.30;;;;;;;10.69;49.33;92266.88;5105208;28;20031;-72
2022/04/02 00:48:14;;;;;;;5.35;0.40;;;;;;;10.71;49.63;92238.00;5105085;28;20324;-72
2022/04/02 00:50:39;;;;;;;2.05;0.40;;;;;;;10.73;49.51;92257.81;5103901;28;20031;-73
2022/04/02 00:53:05;;;;;;;1.10;0.20;;;;;;;10.77;49.80;92247.25;5105401;28;20019;-73
2022/04/02 00:55:32;;;;;;;0.32;0.20;;;;;;;10.80;51.12;92249.19;5104981;28;20107;-72
2022/04/02 00:57:58;;;;;;;2.65;0.60;;;;;;;10.76;49.55;92249.13;5104887;28;20036;-73
2022/04/02 01:00:23;;;;;;;3.33;0.50;;;;;;;10.87;50.60;92244.00;5104759;28;20027;-72
2022/04/02 01:02:49;;;;;;;2.53;0.50;;;;;;;10.94;50.11;92257.44;5104640;28;20394;-72
2022/04/02 01:05:14;;;;;;;4.50;0.52;;;;;;;10.91;49.62;92252.81;5104560;28;20030;-72
2022/04/02 01:07:40;;;;;;;1.08;0.50;;;;;;;10.89;49.30;92246.28;5104976;28;20042;-72
2022/04/02 01:10:06;;;;;;;1.38;0.43;;;;;;;10.77;49.49;92271.22;5104948;28;20046;-72
2022/04/02 01:12:31;;;;;;;0.80;0.50;;;;;;;10.61;49.42;92268.63;5103293;28;20024;-73
2022/04/02 01:14:57;;;;;;;1.98;0.47;;;;;;;10.67;49.55;92275.22;5104634;28;20032;-72
2022/04/02 01:17:23;;;;;;;1.63;0.50;;;;;;;10.71;49.86;92275.31;5104559;28;20330;-72
2022/04/02 01:19:50;;;;;;;0.65;0.40;;;;;;;10.73;49.61;92201.09;5104286;28;20066;-72
2022/04/02 01:22:15;;;;;;;1.65;0.70;;;;;;;10.69;49.41;92258.88;5104428;28;20031;-72
2022/04/02 01:24:41;;;;;;;0.38;0.30;;;;;;;10.74;50.32;92264.69;5104365;28;20035;-72
2022/04/02 01:27:07;;;;;;;1.55;0.60;;;;;;;10.70;50.76;92257.75;5104355;28;20040;-72
2022/04/02 01:29:33;;;;;;;0.88;0.38;;;;;;;10.73;49.78;92284.47;5104491;28;20066;-72
2022/04/02 01:31:59;;;;;;;1.85;0.50;;;;;;;10.75;49.61;92271.56;5104255;28;20046;-72
2022/04/02 01:34:25;;;;;;;0.55;0.40;;;;;;;10.80;50.85;92278.50;5104160;28;20021;-72
2022/04/02 01:36:50;;;;;;;4.43;0.60;;;;;;;10.79;50.69;92272.41;5104398;28;20024;-72
2022/04/02 01:39:16;;;;;;;2.25;0.38;;;;;;;10.79;49.57;92271.63;5104239;28;20394;-72
2022/04/02 01:41:41;;;;;;;0.88;0.30;;;;;;;10.78;49.62;92286.84;5104017;28;20023;-72
2022/04/02 01:44:07;;;;;;;0.75;0.50;;;;;;;10.72;50.83;92308.81;5104093;28;20019;-73
2022/04/02 01:46:32;;;;;;;1.20;0.50;;;;;;;10.61;49.87;92290.72;5104183;28;20035;-72
2022/04/02 01:48:58;;;;;;;1.40;0.93;;;;;;;10.66;50.14;92328.84;5103919;28;20068;-72
2022/04/02 01:51:23;;;;;;;1.80;0.60;;;;;;;10.58;50.72;92318.06;5103894;28;20027;-72
2022/04/02 01:53:49;;;;;;;0.40;0.40;;;;;;;10.58;48.86;92327.94;5103928;28;20223;-72
2022/04/02 01:56:14;;;;;;;1.23;0.38;;;;;;;10.63;50.03;92330.34;5103620;28;20044;-72
2022/04/02 01:58:40;;;;;;;1.13;0.55;;;;;;;10.60;49.88;92302.50;5103898;28;20027;-72
2022/04/02 02:01:06;;;;;;;0.68;0.47;;;;;;;10.64;49.31;92289.22;5103875;28;20020;-72
2022/04/02 02:03:32;;;;;;;1.15;0.40;;;;;;;10.68;49.71;92303.41;5104015;28;20087;-72
2022/04/02 02:05:57;;;;;;;4.68;1.33;;;;;;;10.64;49.57;92318.53;5103527;28;20028;-72
2022/04/02 02:08:23;;;;;;;2.35;0.65;;;;;;;10.67;48.64;92274.47;5103707;28;20108;-72
2022/04/02 02:10:49;;;;;;;0.65;0.40;;;;;;;10.61;49.64;92289.94;5102938;28;20354;-72
2022/04/02 02:13:15;;;;;;;1.58;0.50;;;;;;;10.39;50.27;92262.13;5103634;28;20032;-72
2022/04/02 02:15:40;;;;;;;0.95;0.50;;;;;;;10.47;50.41;92242.50;5102112;28;20024;-72
2022/04/02 02:18:06;;;;;;;1.40;0.45;;;;;;;10.47;50.24;92261.13;5103450;28;20024;-72
2022/04/02 02:20:32;;;;;;;1.52;0.32;;;;;;;10.46;49.64;92259.56;5103723;28;20019;-72
2022/04/02 02:22:57;;;;;;;0.35;0.30;;;;;;;10.48;49.54;92272.56;5103474;28;20355;-72
2022/04/02 02:25:23;;;;;;;1.27;0.60;;;;;;;10.51;49.64;92261.22;5103118;28;20028;-72
2022/04/02 02:27:48;;;;;;;1.15;0.30;;;;;;;10.38;49.37;92260.56;5103326;28;20035;-72
2022/04/02 02:30:16;;;;;;;0.70;0.30;;;;;;;10.27;48.66;92267.53;5103193;28;20032;-72
2022/04/02 02:32:42;;;;;;;0.95;0.32;;;;;;;10.27;49.74;92268.31;5103033;28;20087;-72
2022/04/02 02:38:10;;;;;;;1.98;0.40;;;;;;;10.14;48.99;92254.38;5102992;28;20035;-73
2022/04/02 02:40:37;;;;;;;1.45;0.45;;;;;;;10.12;49.86;92247.84;5102990;28;20048;-72
2022/04/02 02:43:03;;;;;;;0.90;0.40;;;;;;;10.09;49.61;92245.88;5103095;28;20091;-72
2022/04/02 02:45:31;;;;;;;0.25;0.20;;;;;;;10.07;48.96;92211.59;5103079;28;20056;-72
2022/04/02 02:47:57;;;;;;;2.47;0.40;;;;;;;10.13;49.42;92239.50;5103252;28;20042;-72
2022/04/02 02:50:23;;;;;;;3.05;0.50;;;;;;;10.14;48.34;92211.75;5102906;28;20202;-72
2022/04/02 02:52:48;;;;;;;1.27;0.50;;;;;;;10.16;48.71;92214.84;5103155;28;20095;-72
2022/04/02 02:55:14;;;;;;;3.40;0.52;;;;;;;10.17;49.20;92227.03;5102689;28;20103;-72
2022/04/02 02:57:40;;;;;;;2.35;0.70;;;;;;;10.14;48.83;92205.69;5102932;28;20032;-72
2022/04/02 03:00:10;;;;;;;5.70;0.47;;;;;;;10.14;49.05;92258.91;5103035;28;20360;-73
2022/04/02 03:02:39;;;;;;;3.33;0.43;;;;;;;10.13;48.75;92207.56;5103070;28;20069;-72
2022/04/02 03:05:12;;;;;;;0.70;0.32;;;;;;;10.12;47.90;92205.25;5102954;28;20070;-73
2022/04/02 03:07:41;;;;;;;1.00;0.30;;;;;;;10.17;48.33;92215.63;5102898;28;20083;-73
2022/04/02 03:10:07;;;;;;;0.45;0.25;;;;;;;10.14;48.49;92195.78;5102908;28;20099;-73
2022/04/02 03:12:33;;;;;;;0.88;0.40;;;;;;;10.15;47.92;92181.34;5102963;28;20028;-74
2022/04/02 03:15:01;;;;;;;1.25;0.43;;;;;;;10.12;48.20;92197.28;5102841;28;20016;-75
2022/04/02 03:17:30;;;;;;;0.50;0.30;;;;;;;10.10;49.26;92204.84;5102782;28;20341;-74
2022/04/02 03:19:56;;;;;;;1.15;0.38;;;;;;;10.07;48.25;92194.88;5102674;28;20024;-74
2022/04/02 03:22:22;;;;;;;0.30;0.30;;;;;;;10.03;48.29;92184.94;5104054;28;20019;-74
2022/04/02 03:24:47;;;;;;;2.53;0.50;;;;;;;10.09;47.92;92201.38;5106690;28;20035;-74
2022/04/02 03:27:13;;;;;;;0.77;0.22;;;;;;;10.11;47.67;92201.81;5106803;28;20023;-74
2022/04/02 03:29:39;;;;;;;0.20;0.20;;;;;;;10.09;47.83;92211.25;5106643;28;20044;-73
2022/04/02 03:32:05;;;;;;;1.08;0.30;;;;;;;10.14;48.39;92232.31;5106594;28;20027;-73
2022/04/02 03:34:31;;;;;;;4.63;0.43;;;;;;;10.12;48.13;92229.97;5106717;28;20225;-72
2022/04/02 03:36:56;;;;;;;1.20;0.45;;;;;;;10.15;46.97;92234.59;5106481;28;20248;-73
2022/04/02 03:39:22;;;;;;;0.40;0.35;;;;;;;10.16;47.28;92238.03;5106368;28;20027;-72
2022/04/02 03:41:48;;;;;;;2.13;0.43;;;;;;;10.19;47.26;92277.28;5106578;28;20023;-72
2022/04/02 03:44:13;;;;;;;0.30;0.30;;;;;;;10.28;46.84;92256.56;5106317;28;20057;-72
2022/04/02 03:49:26;;;;;;;0.82;0.50;;;;;;;10.34;46.76;92294.34;5106255;28;20058;-73
2022/04/02 03:51:51;;;;;;;1.98;1.05;;;;;;;10.38;46.68;92303.16;5106019;28;20051;-73
2022/04/02 03:54:17;;;;;;;1.40;0.40;;;;;;;10.39;47.11;92318.81;5106353;28;20023;-74
2022/04/02 03:56:43;;;;;;;1.90;0.47;;;;;;;10.36;46.33;92302.75;5106043;28;20150;-73
2022/04/02 03:59:11;;;;;;;8.57;0.75;;;;;;;10.40;46.14;92300.94;5106132;28;20369;-72
2022/04/02 04:01:37;;;;;;;1.38;0.50;;;;;;;10.43;46.45;92293.03;5106271;28;20020;-73
2022/04/02 04:04:04;;;;;;;0.98;0.30;;;;;;;10.44;46.78;92286.59;5106153;28;20326;-72
2022/04/02 04:06:29;;;;;;;0.45;0.30;;;;;;;10.39;45.96;92291.41;5105927;28;20028;-71
2022/04/02 04:08:56;;;;;;;0.47;0.28;;;;;;;10.35;45.79;92309.22;5105887;28;20103;-72
2022/04/02 04:11:23;;;;;;;5.68;0.45;;;;;;;10.39;46.02;92315.38;5105834;28;20095;-72
2022/04/02 04:13:49;;;;;;;0.30;0.20;;;;;;;10.36;45.78;92324.84;5105845;28;20023;-73
2022/04/02 04:16:14;;;;;;;1.02;0.40;;;;;;;10.39;45.72;92340.13;5105856;28;20020;-72
2022/04/02 04:18:40;;;;;;;0.82;0.40;;;;;;;10.37;46.89;92334.38;5105433;28;20031;-72
2022/04/02 04:21:05;;;;;;;1.45;0.20;;;;;;;10.37;47.48;92347.69;5105851;28;20195;-72
2022/04/02 04:23:31;;;;;;;1.48;0.35;;;;;;;10.39;46.51;92312.72;5105686;28;20020;-72
2022/04/02 04:25:56;;;;;;;0.17;0.17;;;;;;;10.40;47.20;92338.22;5105522;28;20055;-72
2022/04/02 04:28:22;;;;;;;0.80;0.40;;;;;;;10.32;46.70;92329.31;5105564;28;20024;-71
2022/04/02 04:30:48;;;;;;;0.82;0.30;;;;;;;10.30;46.88;92352.88;5105482;28;20103;-72
2022/04/02 04:33:14;;;;;;;0.20;0.20;;;;;;;10.33;46.15;92373.47;5103989;28;20063;-72
2022/04/02 04:35:40;;;;;;;1.48;0.20;;;;;;;10.34;46.26;92374.22;5105075;28;20340;-72
2022/04/02 04:38:06;;;;;;;3.35;0.70;;;;;;;10.38;46.20;92359.91;5105561;28;20026;-72
2022/04/02 04:40:32;;;;;;;2.75;0.40;;;;;;;10.44;44.97;92369.16;5105251;28;20225;-72
2022/04/02 04:42:58;;;;;;;0.30;0.30;;;;;;;10.52;44.68;92383.41;5105350;28;20030;-72
2022/04/02 04:45:24;;;;;;;0.98;0.30;;;;;;;10.59;44.51;92372.88;5104963;28;20022;-73
2022/04/02 04:47:49;;;;;;;0.52;0.30;;;;;;;10.57;45.03;92372.47;5104896;28;20035;-73
2022/04/02 04:50:15;;;;;;;1.65;0.50;;;;;;;10.61;44.93;92364.56;5105120;28;20017;-71
2022/04/02 04:52:40;;;;;;;0.22;0.22;;;;;;;10.64;43.48;92345.97;5104972;28;20325;-72
2022/04/02 04:55:06;;;;;;;0.68;0.22;;;;;;;10.67;44.32;92367.72;5104785;28;20345;-73
2022/04/02 04:57:32;;;;;;;0.40;0.40;;;;;;;10.68;44.36;92345.25;5104704;28;20034;-73
2022/04/02 04:59:57;;;;;;;0.32;0.30;;;;;;;10.70;44.57;92353.69;5104659;28;20034;-73
2022/04/02 05:02:23;;;;;;;1.98;0.57;;;;;;;10.68;44.12;92359.34;5104387;28;20050;-73
2022/04/02 05:04:49;;;;;;;1.63;0.50;;;;;;;10.70;43.63;92348.34;5104609;28;20025;-71
2022/04/02 05:07:15;;;;;;;1.52;0.40;;;;;;;10.75;43.69;92354.19;5104655;28;20024;-76
2022/04/02 05:09:45;;;;;;;2.55;1.10;;;;;;;10.80;43.77;92358.44;5104644;28;20024;-74
2022/04/02 05:12:12;;;;;;;3.72;0.60;;;;;;;10.77;44.25;92343.19;5104771;28;20024;-74
2022/04/02 05:14:37;;;;;;;3.42;0.52;;;;;;;10.72;45.05;92359.44;5104607;28;20023;-73
2022/04/02 05:17:03;;;;;;;2.75;0.30;;;;;;;10.60;44.48;92334.47;5103188;28;20306;-75
2022/04/02 05:19:29;;;;;;;5.70;0.32;;;;;;;10.57;44.51;92332.50;5104582;28;20042;-73
2022/04/02 05:21:55;;;;;;;5.25;0.50;;;;;;;10.62;44.31;92326.91;5104548;28;20069;-73
2022/04/02 05:24:20;;;;;;;1.98;0.35;;;;;;;10.61;42.44;92314.69;5104355;28;20046;-74
2022/04/02 05:26:47;;;;;;;0.63;0.32;;;;;;;10.65;42.35;92336.09;5104264;28;20031;-76
2022/04/02 05:29:13;;;;;;;0.40;0.30;;;;;;;10.70;41.80;92316.38;5104043;28;20028;-74
2022/04/02 05:31:41;;;;;;;0.52;0.30;;;;;;;10.75;42.65;92348.84;5104077;28;20024;-74
2022/04/02 05:34:06;;;;;;;2.80;0.38;;;;;;;10.72;41.71;92341.53;5104368;28;20202;-73
2022/04/02 05:36:33;;;;;;;1.42;0.40;;;;;;;10.78;42.09;92364.13;5104300;28;20051;-72
2022/04/02 05:38:59;;;;;;;0.90;0.43;;;;;;;10.82;42.01;92351.63;5103859;28;20039;-73
2022/04/02 05:41:25;;;;;;;4.65;0.40;;;;;;;10.76;41.91;92365.59;5104065;28;20111;-74
2022/04/02 05:43:50;;;;;;;0.68;0.40;;;;;;;10.79;42.37;92365.69;5103976;28;20262;-74
2022/04/02 05:46:16;;;;;;;1.75;0.90;;;;;;;10.89;41.58;92375.03;5102819;28;20039;-74
2022/04/02 05:48:42;;;;;;;0.70;0.40;;;;;;;10.92;42.02;92387.63;5104022;28;20028;-75
2022/04/02 05:51:08;;;;;;;0.22;0.22;;;;;;;10.91;41.72;92415.44;5103948;28;20031;-73
2022/04/02 05:53:34;;;;;;;0.75;0.40;;;;;;;10.89;42.17;92379.56;5103784;28;20039;-73
2022/04/02 05:56:01;;;;;;;1.42;0.43;;;;;;;10.95;41.69;92354.16;5103671;28;20036;-73
2022/04/02 05:58:27;;;;;;;0.50;0.30;;;;;;;10.93;41.74;92367.88;5103957;28;20043;-75
2022/04/02 06:00:54;;;;;;;1.20;0.50;;;;;;;10.90;42.09;92371.22;5104168;28;20024;-74
2022/04/02 06:03:20;;;;;;;3.60;0.40;;;;;;;10.77;42.09;92349.28;5103602;28;20143;-74
2022/04/02 06:05:48;;;;;;;1.98;0.68;;;;;;;10.69;43.38;92352.16;5103440;28;20027;-77
2022/04/02 06:08:15;;;;;;;3.10;0.50;;;;;;;10.61;42.95;92346.66;5104021;28;20195;-78
2022/04/02 06:10:41;;;;;;;0.40;0.40;;;;;;;10.63;44.29;92327.66;5103582;28;20035;-74
2022/04/02 06:13:07;;;;;;;1.95;0.47;;;;;;;10.68;43.31;92354.03;5103607;28;20094;-76
2022/04/02 06:15:34;;;;;;;3.92;0.57;;;;;;;10.63;43.12;92347.09;5103730;28;20012;-73
2022/04/02 06:17:59;;;;;;;3.92;0.68;;;;;;;10.58;43.65;92346.59;5103567;28;20020;-78
2022/04/02 06:20:25;;;;;;;1.92;0.40;;;;;;;10.64;43.35;92327.31;5103174;28;20038;-72
2022/04/02 06:22:50;;;;;;;1.45;0.85;;;;;;;10.75;43.12;92332.09;5103145;28;20095;-72
2022/04/02 06:25:16;;;;;;;0.85;0.50;;;;;;;10.86;42.31;92330.41;5103124;28;20020;-72
2022/04/02 06:27:46;;;;;;;1.98;0.55;;;;;;;10.90;42.85;92339.22;5102882;28;20016;-72
2022/04/02 06:30:15;;;;;;;1.95;0.57;;;;;;;10.95;42.26;92324.84;5101262;28;20045;-72
2022/04/02 06:32:41;;;;;;;1.90;0.52;;;;;;;11.02;42.33;92331.09;5100881;28;20046;-72
2022/04/02 06:35:07;;;;;;;1.77;0.40;;;;;;;11.06;42.97;92341.81;5101711;28;20011;-72
2022/04/02 06:37:34;;;;;;;3.08;0.80;;;;;;;11.08;42.65;92326.25;5101270;28;20266;-72
2022/04/02 06:40:00;;;;;;;8.52;0.50;;;;;;;11.06;42.57;92325.06;5101129;28;20333;-72
2022/04/02 06:42:25;;;;;;;2.25;0.60;;;;;;;11.04;42.83;92336.84;5101244;28;20026;-73
2022/04/02 06:44:51;;;;;;;8.02;0.77;;;;;;;11.09;43.47;92332.34;5101030;28;20206;-72
2022/04/02 06:47:16;;;;;;;4.13;1.17;;;;;;;11.14;43.00;92346.16;5100092;28;20312;-72
2022/04/02 06:49:42;;;;;;;2.58;0.55;;;;;;;11.13;42.72;92365.19;5099588;28;20091;-73
2022/04/02 06:52:07;;;;;;;2.47;0.45;;;;;;;11.14;42.60;92356.84;5099500;28;20096;-72
2022/04/02 06:54:33;;;;;;;1.75;0.45;;;;;;;11.22;42.08;92373.75;5101063;28;20360;-73
2022/04/02 06:56:59;;;;;;;5.00;0.80;;;;;;;11.24;41.90;92366.94;5100708;28;20081;-73
2022/04/02 06:59:25;;;;;;;1.67;0.68;;;;;;;11.29;41.55;92384.53;5100865;28;20035;-73
2022/04/02 07:01:50;;;;;;;1.58;0.60;;;;;;;11.39;41.88;92394.63;5101584;28;20207;-72
2022/04/02 07:04:16;;;;;;;3.08;0.70;;;;;;;11.39;42.16;92415.97;5102914;28;20372;-73
2022/04/02 07:06:45;;;;;;;1.00;0.60;;;;;;;11.39;42.05;92385.84;5102791;28;20043;-72
2022/04/02 07:09:12;;;;;;;1.35;0.70;;;;;;;11.35;41.60;92398.34;5102826;28;20043;-72
2022/04/02 07:11:37;;;;;;;1.40;0.55;;;;;;;11.33;41.62;92385.38;5102425;28;20230;-73
2022/04/02 07:14:03;;;;;;;1.50;0.70;;;;;;;11.46;40.44;92402.00;5103041;28;20028;-73
2022/04/02 07:16:28;;;;;;;4.53;0.98;;;;;;;11.54;41.01;92406.34;5102767;28;20199;-73
2022/04/02 07:18:55;;;;;;;3.33;0.80;;;;;;;11.69;41.24;92419.94;5102510;28;20020;-72
2022/04/02 07:21:25;;;;;;;1.98;0.70;;;;;;;11.67;40.49;92414.94;5102618;28;20035;-72
2022/04/02 07:23:51;;;;;;;1.05;0.70;;;;;;;11.80;40.37;92435.00;5102471;28;20035;-71
2022/04/02 07:26:19;;;;;;;3.10;0.73;;;;;;;11.85;39.62;92439.28;5102346;28;20028;-73
2022/04/02 07:28:44;;;;;;;2.75;0.68;;;;;;;11.95;40.17;92470.00;5102546;28;20062;-73
2022/04/02 07:31:10;;;;;;;2.40;0.75;;;;;;;12.01;40.12;92471.25;5102529;28;20303;-72
2022/04/02 07:33:36;;;;;;;3.22;1.05;;;;;;;12.03;39.55;92463.66;5102475;28;20024;-72
2022/04/02 07:36:08;;;;;;;10.15;1.75;;;;;;;12.12;41.14;92504.25;5102296;28;20038;-72
2022/04/02 07:38:38;;;;;;;1.88;0.77;;;;;;;12.15;39.42;92476.84;5102187;28;20260;-72
2022/04/02 07:41:15;;;;;;;3.00;0.90;;;;;;;12.20;37.84;92465.84;5102237;28;20020;-72
2022/04/02 07:43:47;;;;;;;2.92;0.60;;;;;;;12.21;38.95;92463.94;5102139;28;20038;-72
2022/04/02 07:46:16;;;;;;;3.17;0.95;;;;;;;12.23;39.11;92478.50;5102159;28;20119;-72
2022/04/02 07:48:46;;;;;;;0.35;0.32;;;;;;;12.26;40.51;92477.00;5102285;28;20031;-72
2022/04/02 07:51:13;;;;;;;2.28;0.85;;;;;;;12.43;40.60;92475.75;5102253;28;20215;-72
2022/04/02 07:53:45;;;;;;;3.40;1.55;;;;;;;12.62;40.04;92493.63;5102312;28;20043;-72
2022/04/02 07:56:14;;;;;;;3.17;1.00;;;;;;;12.80;39.69;92509.91;5102078;28;20035;-72
2022/04/02 07:58:45;;;;;;;1.80;0.85;;;;;;;13.01;39.35;92472.03;5102257;28;20027;-72
2022/04/02 08:01:15;;;;;;;2.38;0.65;;;;;;;13.25;38.99;92484.19;5101179;28;20047;-72
2022/04/02 08:03:44;;;;;;;5.00;0.52;;;;;;;13.20;39.00;92489.84;5102204;28;20078;-72
2022/04/02 08:06:11;;;;;;;3.85;0.95;;;;;;;13.23;38.25;92500.59;5102287;28;20028;-72
2022/04/02 08:08:37;;;;;;;1.48;0.75;;;;;;;13.28;38.22;92471.97;5102236;28;20024;-72
2022/04/02 08:11:03;;;;;;;3.42;0.70;;;;;;;13.30;39.00;92464.38;5106170;28;20031;-72
2022/04/02 08:13:30;;;;;;;2.58;0.73;;;;;;;13.38;38.21;92480.16;5105810;28;20028;-72
2022/04/02 08:15:57;;;;;;;1.15;0.60;;;;;;;13.31;38.78;92468.59;5105502;28;20027;-72
2022/04/02 08:18:26;;;;;;;7.32;1.33;;;;;;;13.45;37.65;92495.53;5105819;28;20213;-72
2022/04/02 08:20:52;;;;;;;4.85;0.60;;;;;;;13.53;36.98;92485.69;5105699;28;20031;-73
2022/04/02 08:23:18;;;;;;;2.40;0.60;;;;;;;13.60;36.03;92473.16;5105415;28;20032;-72
2022/04/02 08:26:02;;;;;;;4.45;0.77;;;;;;;13.62;36.17;92500.34;5105726;28;20315;-72
2022/04/02 08:29:22;;;;;;;1.23;0.60;;;;;;;13.56;35.90;92485.72;5105352;28;20055;-72
2022/04/02 08:32:08;;;;;;;1.08;0.32;;;;;;;13.31;36.67;92437.28;5083428;28;20024;-72
2022/04/02 08:34:55;;;;;;;2.05;1.15;;;;;;;13.21;36.93;92449.34;5103769;28;20055;-72
2022/04/02 08:37:29;;;;;;;1.33;0.30;;;;;;;13.20;36.72;92473.78;5104006;28;20035;-72
2022/04/02 08:40:16;;;;;;;1.00;0.45;;;;;;;13.30;35.71;92457.13;5104230;28;20058;-72
2022/04/02 08:42:54;;;;;;;7.70;0.57;;;;;;;13.46;36.46;92466.88;5105110;28;20028;-72
2022/04/02 08:45:27;;;;;;;2.92;0.77;;;;;;;13.46;35.97;92480.25;5105108;28;20203;-71
2022/04/02 08:48:27;;;;;;;3.63;0.65;;;;;;;13.51;36.03;92496.00;5104993;28;20028;-71
2022/04/02 08:51:12;;;;;;;0.52;0.40;;;;;;;13.54;35.43;92497.94;5105184;28;20042;-71
2022/04/02 08:54:01;;;;;;;1.98;0.70;;;;;;;13.48;35.15;92481.44;5104943;28;20031;-71
2022/04/02 08:56:29;;;;;;;1.13;0.50;;;;;;;13.43;36.58;92498.59;5104772;28;20056;-71
2022/04/02 08:59:04;;;;;;;2.70;0.65;;;;;;;13.47;36.06;92524.63;5104891;28;20040;-71
2022/04/02 09:01:38;;;;;;;3.25;0.65;;;;;;;13.40;36.98;92506.56;5104855;28;20020;-72
2022/04/02 09:04:36;;;;;;;2.72;0.70;;;;;;;13.56;37.38;92447.50;5105030;28;20310;-72
2022/04/02 09:07:31;;;;;;;1.40;0.60;;;;;;;13.74;36.55;92509.25;5104649;28;20047;-72
2022/04/02 09:10:15;;;;;;;3.05;0.70;;;;;;;13.91;37.79;92503.34;5104556;28;20052;-72
2022/04/02 09:13:05;;;;;;;4.88;0.80;;;;;;;13.88;36.86;92496.03;5103524;28;20158;-73
2022/04/02 09:16:01;;;;;;;0.80;0.60;;;;;;;13.93;36.31;92494.94;5104299;28;20377;-73
2022/04/02 09:18:32;;;;;;;3.28;0.90;;;;;;;14.02;37.26;92508.78;5101947;28;20040;-72
2022/04/02 09:21:13;;;;;;;1.63;0.70;;;;;;;14.02;37.27;92496.19;5104147;28;20032;-73
2022/04/02 09:24:03;;;;;;;2.60;0.60;;;;;;;14.10;36.83;92467.53;5104530;28;20027;-71
2022/04/02 09:26:31;;;;;;;0.85;0.57;;;;;;;14.05;36.80;92489.31;5104227;28;20028;-71
2022/04/02 09:29:05;;;;;;;4.20;0.70;;;;;;;14.01;37.39;92493.88;5104228;28;20039;-71
2022/04/02 09:31:49;;;;;;;1.27;0.50;;;;;;;14.20;37.24;92490.22;5104258;28;20019;-71
2022/04/02 09:34:47;;;;;;;2.58;0.90;;;;;;;14.16;35.50;92494.78;5104122;28;20039;-71
2022/04/02 09:37:44;;;;;;;2.65;0.73;;;;;;;14.17;37.00;92507.81;5104246;28;20027;-73
2022/04/02 09:40:11;;;;;;;3.15;0.70;;;;;;;14.27;35.63;92521.66;5104011;28;20016;-72
2022/04/02 09:42:37;;;;;;;1.63;0.40;;;;;;;14.20;34.75;92495.59;5104233;28;20033;-71
2022/04/02 09:45:13;;;;;;;0.75;0.40;;;;;;;14.40;35.00;92520.28;5104060;28;20020;-72
2022/04/02 09:47:47;;;;;;;1.95;0.65;;;;;;;14.43;34.38;92519.53;5103866;28;20047;-72
2022/04/02 09:50:19;;;;;;;3.00;0.70;;;;;;;14.58;33.39;92521.22;5103474;28;20028;-72
2022/04/02 09:52:48;;;;;;;2.75;0.63;;;;;;;14.76;34.29;92536.72;5101897;28;20370;-72
2022/04/02 09:55:22;;;;;;;0.93;0.55;;;;;;;15.06;34.58;92552.63;5101915;28;20055;-72
2022/04/02 09:58:09;;;;;;;2.78;0.93;;;;;;;15.19;33.64;92526.28;5101833;28;20241;-72
2022/04/02 10:00:48;;;;;;;1.27;0.52;;;;;;;15.02;34.84;92512.38;5101931;28;20035;-72
2022/04/02 10:03:31;;;;;;;1.30;0.80;;;;;;;15.00;34.47;92522.72;5101988;28;20027;-72
2022/04/02 10:06:05;;;;;;;2.83;0.77;;;;;;;14.96;34.52;92521.91;5102475;28;20314;-72
2022/04/02 10:08:38;;;;;;;2.65;1.00;;;;;;;15.17;34.94;92512.47;5103483;28;20034;-71
2022/04/02 10:11:07;;;;;;;2.47;1.00;;;;;;;15.42;33.79;92515.28;5103651;28;20027;-72
2022/04/02 10:13:34;;;;;;;2.17;0.50;;;;;;;14.97;30.49;92520.75;5103086;28;20366;-73
2022/04/02 10:16:00;;;;;;;1.17;0.60;;;;;;;15.23;32.22;92519.00;5103406;28;20038;-71
2022/04/02 10:18:27;;;;;;;2.08;0.50;;;;;;;15.02;30.18;92500.84;5103351;28;20028;-71
2022/04/02 10:20:53;;;;;;;1.75;0.68;;;;;;;15.19;31.38;92494.84;5103336;28;20241;-72
2022/04/02 10:23:24;;;;;;;1.77;0.40;;;;;;;15.48;31.10;92488.84;5103211;28;20061;-73
2022/04/02 10:26:14;;;;;;;1.15;0.50;;;;;;;15.48;30.20;92503.03;5103096;28;20199;-72
2022/04/02 10:28:56;;;;;;;4.20;0.50;;;;;;;15.62;31.22;92484.31;5103155;28;20024;-72
2022/04/02 10:31:30;;;;;;;1.23;0.40;;;;;;;15.42;30.37;92508.00;5102778;28;20024;-72
2022/04/02 10:34:04;;;;;;;2.58;0.50;;;;;;;15.58;30.28;92488.13;5103166;28;20035;-73
2022/04/02 10:36:32;;;;;;;2.35;0.73;;;;;;;15.81;31.92;92477.91;5103151;28;20024;-73
2022/04/02 10:38:58;;;;;;;1.00;0.50;;;;;;;15.96;29.39;92470.63;5101870;28;20062;-72
2022/04/02 10:41:28;;;;;;;1.58;0.50;;;;;;;16.09;31.58;92468.34;5102960;28;20380;-72
2022/04/02 10:44:03;;;;;;;3.03;0.70;;;;;;;16.24;30.56;92464.53;5103014;28;20019;-73
2022/04/02 10:46:32;;;;;;;1.58;0.57;;;;;;;16.30;29.74;92493.72;5102534;28;20034;-73
2022/04/02 10:49:08;;;;;;;1.63;0.47;;;;;;;15.93;28.72;92486.75;5102655;28;20069;-73
2022/04/02 10:51:39;;;;;;;3.65;0.60;;;;;;;15.59;29.58;92490.44;5102860;28;20027;-72
2022/04/02 10:54:07;;;;;;;2.03;0.40;;;;;;;15.64;30.18;92478.56;5102969;28;20091;-72
2022/04/02 10:56:46;;;;;;;0.95;0.50;;;;;;;15.74;29.84;92467.13;5102719;28;20043;-72
2022/04/02 10:59:14;;;;;;;4.07;0.60;;;;;;;15.74;29.85;92451.00;5102682;28;20069;-72
2022/04/02 11:01:42;;;;;;;3.83;0.95;;;;;;;15.91;30.23;92456.78;5102856;28;20217;-72
2022/04/02 11:04:36;;;;;;;0.88;0.50;;;;;;;16.20;29.12;92468.34;5102719;28;20095;-72
2022/04/02 11:07:02;;;;;;;0.75;0.50;;;;;;;16.33;29.64;92466.09;5102584;28;20035;-72
2022/04/02 11:09:40;;;;;;;0.65;0.50;;;;;;;16.34;29.95;92478.38;5102739;28;20077;-73
2022/04/02 11:12:11;;;;;;;1.77;0.50;;;;;;;16.09;29.58;92483.72;5102718;28;20242;-72
2022/04/02 11:14:49;;;;;;;4.63;1.00;;;;;;;16.11;34.80;92498.31;5102447;28;20020;-72
2022/04/02 11:17:32;;;;;;;7.43;1.20;;;;;;;16.05;38.57;92526.69;5102311;28;20024;-72
2022/04/02 11:20:06;;;;;;;3.60;1.17;;;;;;;15.73;39.60;92513.16;5102459;28;20039;-72
2022/04/02 11:22:52;;;;;;;3.13;1.08;;;;;;;14.59;43.11;92495.19;5102521;28;20065;-72
2022/04/02 11:25:34;;;;;;;4.95;0.85;;;;;;;14.27;46.06;92521.66;5090953;28;20032;-72
2022/04/02 11:28:08;;;;;;;3.17;0.60;;;;;;;14.00;42.52;92530.63;5102373;28;20129;-72
2022/04/02 11:30:40;;;;;;;1.27;0.70;;;;;;;13.94;44.97;92526.72;5102522;28;20028;-71
2022/04/02 11:33:06;;;;;;;1.05;0.70;;;;;;;13.84;45.63;92528.13;5102540;28;20048;-71
2022/04/02 11:35:37;;;;;;;4.93;1.33;;;;;;;13.73;47.18;92526.47;5102311;28;20020;-72
2022/04/02 11:38:14;;;;;;;3.30;0.80;;;;;;;13.38;41.70;92541.72;5102279;28;20238;-71
2022/04/02 11:40:51;;;;;;;0.90;0.50;;;;;;;12.46;45.74;92549.88;5102064;28;20095;-71
2022/04/02 11:43:17;;;;;;;1.35;0.45;;;;;;;11.68;47.29;92555.25;5102103;28;20207;-71
2022/04/02 11:45:47;;;;;;;1.15;0.57;;;;;;;11.40;49.37;92563.47;5105905;28;20031;-70
2022/04/02 11:48:15;;;;;;;4.00;0.70;;;;;;;11.12;50.61;92561.72;5106202;28;20020;-72
2022/04/02 11:50:45;;;;;;;3.30;0.70;;;;;;;10.91;52.17;92583.38;5105808;28;20035;-70